sensor_id;sensor_type;location;lat;lon;timestamp;pressure;altitude;pressure_sealevel;temperature;humidity
5913;BME280;2982;42.684;23.356;2024-03-23T00:54:19;95001.34;;;3.04;100.00
5913;BME280;2982;42.684;23.356;2024-03-23T00:56:44;94945.41;;;2.65;100.00
5913;BME280;2982;42.684;23.356;2024-03-23T00:59:10;94990.56;;;3.02;100.00
5913;BME280;2982;42.684;23.356;2024-03-23T01:01:35;94736.13;;;1.35;100.00
5913;BME280;2982;42.684;23.356;2024-03-23T01:04:00;94955.25;;;2.73;100.00
5913;BME280;2982;42.684;23.356;2024-03-23T01:06:26;94917.22;;;2.54;100.00
5913;BME280;2982;42.684;23.356;2024-03-23T01:08:51;94912.28;;;2.51;100.00
5913;BME280;2982;42.684;23.356;2024-03-23T01:11:16;94857.06;;;2.15;100.00
5913;BME280;2982;42.684;23.356;2024-03-23T01:13:42;94985.84;;;2.88;100.00
5913;BME280;2982;42.684;23.356;2024-03-23T01:16:07;94975.84;;;2.87;100.00
5913;BME280;2982;42.684;23.356;2024-03-23T01:18:32;94947.09;;;2.63;100.00
5913;BME280;2982;42.684;23.356;2024-03-23T01:20:58;94866.31;;;2.13;100.00
5913;BME280;2982;42.684;23.356;2024-03-23T01:23:23;94983.47;;;2.82;100.00
5913;BME280;2982;42.684;23.356;2024-03-23T01:25:52;94975.50;;;2.65;100.00
5913;BME280;2982;42.684;23.356;2024-03-23T01:28:18;94827.81;;;1.77;100.00
5913;BME280;2982;42.684;23.356;2024-03-23T01:30:44;95007.03;;;2.75;100.00
5913;BME280;2982;42.684;23.356;2024-03-23T01:33:09;94991.28;;;2.70;100.00
5913;BME280;2982;42.684;23.356;2024-03-23T01:35:34;94740.59;;;1.18;100.00
5913;BME280;2982;42.684;23.356;2024-03-23T01:38:00;94839.47;;;1.80;100.00
5913;BME280;2982;42.684;23.356;2024-03-23T01:40:25;94928.59;;;2.30;100.00
5913;BME280;2982;42.684;23.356;2024-03-23T01:43:07;94830.75;;;1.56;100.00
5913;BME280;2982;42.684;23.356;2024-03-23T01:45:33;94982.34;;;2.57;100.00
5913;BME280;2982;42.684;23.356;2024-03-23T01:48:00;94798.53;;;1.41;100.00
5913;BME280;2982;42.684;23.356;2024-03-23T01:50:26;94986.56;;;2.56;100.00
5913;BME280;2982;42.684;23.356;2024-03-23T01:52:53;94914.75;;;2.14;100.00
5913;BME280;2982;42.684;23.356;2024-03-23T01:55:19;94898.38;;;1.98;100.00
5913;BME280;2982;42.684;23.356;2024-03-23T01:57:44;94849.50;;;1.78;100.00
5913;BME280;2982;42.684;23.356;2024-03-23T02:00:10;94984.13;;;2.52;100.00
5913;BME280;2982;42.684;23.356;2024-03-23T02:02:36;94911.53;;;2.07;100.00
5913;BME280;2982;42.684;23.356;2024-03-23T02:05:01;94936.47;;;2.13;100.00
5913;BME280;2982;42.684;23.356;2024-03-23T02:07:26;94985.00;;;2.51;100.00
5913;BME280;2982;42.684;23.356;2024-03-23T02:09:52;94938.13;;;2.14;100.00
5913;BME280;2982;42.684;23.356;2024-03-23T02:12:18;94985.28;;;2.37;100.00
5913;BME280;2982;42.684;23.356;2024-03-23T02:14:43;94944.84;;;2.12;100.00
5913;BME280;2982;42.684;23.356;2024-03-23T02:17:09;94926.00;;;1.95;100.00
5913;BME280;2982;42.684;23.356;2024-03-23T02:19:34;94963.28;;;2.10;100.00
5913;BME280;2982;42.684;23.356;2024-03-23T02:22:00;94983.06;;;2.24;100.00
5913;BME280;2982;42.684;23.356;2024-03-23T02:24:25;94962.41;;;2.11;100.00
5913;BME280;2982;42.684;23.356;2024-03-23T02:26:51;94958.47;;;1.99;100.00
5913;BME280;2982;42.684;23.356;2024-03-23T02:29:16;94893.09;;;1.68;100.00
5913;BME280;2982;42.684;23.356;2024-03-23T02:31:41;94771.97;;;0.91;100.00
5913;BME280;2982;42.684;23.356;2024-03-23T02:34:07;94890.09;;;1.51;100.00
5913;BME280;2982;42.684;23.356;2024-03-23T02:36:32;94994.06;;;2.15;100.00
5913;BME280;2982;42.684;23.356;2024-03-23T02:38:57;94969.34;;;1.98;100.00
5913;BME280;2982;42.684;23.356;2024-03-23T02:41:23;94994.06;;;2.15;100.00
5913;BME280;2982;42.684;23.356;2024-03-23T02:43:49;94923.84;;;1.76;100.00
5913;BME280;2982;42.684;23.356;2024-03-23T02:46:15;94943.81;;;1.80;100.00
5913;BME280;2982;42.684;23.356;2024-03-23T02:48:40;94867.00;;;1.37;100.00
5913;BME280;2982;42.684;23.356;2024-03-23T02:51:05;94918.75;;;1.81;100.00
5913;BME280;2982;42.684;23.356;2024-03-23T02:53:31;94989.09;;;2.12;100.00
5913;BME280;2982;42.684;23.356;2024-03-23T02:55:58;94979.09;;;2.12;100.00
5913;BME280;2982;42.684;23.356;2024-03-23T02:58:23;94980.75;;;2.11;100.00
5913;BME280;2982;42.684;23.356;2024-03-23T03:00:48;94901.94;;;1.43;100.00
5913;BME280;2982;42.684;23.356;2024-03-23T03:03:14;94952.16;;;1.78;100.00
5913;BME280;2982;42.684;23.356;2024-03-23T03:05:39;94937.09;;;1.82;100.00
5913;BME280;2982;42.684;23.356;2024-03-23T03:08:07;94873.84;;;1.29;100.00
5913;BME280;2982;42.684;23.356;2024-03-23T03:10:32;94986.03;;;1.98;100.00
5913;BME280;2982;42.684;23.356;2024-03-23T03:12:58;94983.50;;;1.99;100.00
5913;BME280;2982;42.684;23.356;2024-03-23T03:15:23;94969.59;;;1.85;100.00
5913;BME280;2982;42.684;23.356;2024-03-23T03:17:48;94837.50;;;1.08;100.00
5913;BME280;2982;42.684;23.356;2024-03-23T03:20:14;94923.44;;;1.53;100.00
5913;BME280;2982;42.684;23.356;2024-03-23T03:22:39;94836.22;;;0.87;100.00
5913;BME280;2982;42.684;23.356;2024-03-23T03:25:05;94870.91;;;1.06;100.00
5913;BME280;2982;42.684;23.356;2024-03-23T03:27:30;94932.66;;;1.50;100.00
5913;BME280;2982;42.684;23.356;2024-03-23T03:29:56;94763.72;;;0.38;100.00
5913;BME280;2982;42.684;23.356;2024-03-23T03:32:21;94744.88;;;0.21;100.00
5913;BME280;2982;42.684;23.356;2024-03-23T03:34:46;94835.59;;;0.75;100.00
5913;BME280;2982;42.684;23.356;2024-03-23T03:37:12;94922.22;;;1.29;100.00
5913;BME280;2982;42.684;23.356;2024-03-23T03:39:37;94660.03;;;-0.36;100.00
5913;BME280;2982;42.684;23.356;2024-03-23T03:42:02;94992.41;;;1.69;100.00
5913;BME280;2982;42.684;23.356;2024-03-23T03:44:28;94969.28;;;1.55;100.00
5913;BME280;2982;42.684;23.356;2024-03-23T03:46:53;94993.41;;;1.59;100.00
5913;BME280;2982;42.684;23.356;2024-03-23T03:49:18;94988.53;;;1.53;100.00
5913;BME280;2982;42.684;23.356;2024-03-23T03:51:44;94812.03;;;0.39;100.00
5913;BME280;2982;42.684;23.356;2024-03-23T03:54:09;94840.19;;;0.50;100.00
5913;BME280;2982;42.684;23.356;2024-03-23T03:56:34;94928.81;;;0.81;100.00
5913;BME280;2982;42.684;23.356;2024-03-23T03:59:00;94751.91;;;-0.04;100.00
5913;BME280;2982;42.684;23.356;2024-03-23T04:01:25;94905.47;;;0.84;100.00
5913;BME280;2982;42.684;23.356;2024-03-23T04:03:51;94995.38;;;1.42;100.00
5913;BME280;2982;42.684;23.356;2024-03-23T04:06:19;94967.25;;;1.28;100.00
5913;BME280;2982;42.684;23.356;2024-03-23T04:08:45;94842.69;;;0.49;100.00
5913;BME280;2982;42.684;23.356;2024-03-23T04:11:10;94794.88;;;0.18;100.00
5913;BME280;2982;42.684;23.356;2024-03-23T04:13:35;94857.47;;;0.62;100.00
5913;BME280;2982;42.684;23.356;2024-03-23T04:16:01;94966.50;;;1.24;100.00
5913;BME280;2982;42.684;23.356;2024-03-23T04:18:26;94818.19;;;0.17;100.00
5913;BME280;2982;42.684;23.356;2024-03-23T04:20:52;94895.78;;;0.61;100.00
5913;BME280;2982;42.684;23.356;2024-03-23T04:23:17;94901.59;;;0.65;100.00
5913;BME280;2982;42.684;23.356;2024-03-23T04:25:43;94952.69;;;1.01;100.00
5913;BME280;2982;42.684;23.356;2024-03-23T04:28:08;94958.38;;;1.12;100.00
5913;BME280;2982;42.684;23.356;2024-03-23T04:30:34;94807.31;;;0.19;100.00
5913;BME280;2982;42.684;23.356;2024-03-23T04:32:59;94965.06;;;1.10;100.00
5913;BME280;2982;42.684;23.356;2024-03-23T04:35:25;94770.78;;;-0.43;100.00
5913;BME280;2982;42.684;23.356;2024-03-23T04:37:50;95046.94;;;1.52;100.00
5913;BME280;2982;42.684;23.356;2024-03-23T04:40:16;94691.84;;;-0.50;100.00
5913;BME280;2982;42.684;23.356;2024-03-23T04:42:42;95045.00;;;1.69;100.00
5913;BME280;2982;42.684;23.356;2024-03-23T04:45:07;95018.25;;;1.71;100.00
5913;BME280;2982;42.684;23.356;2024-03-23T04:47:33;94885.16;;;1.01;100.00
5913;BME280;2982;42.684;23.356;2024-03-23T04:49:58;94894.28;;;1.05;100.00
5913;BME280;2982;42.684;23.356;2024-03-23T04:52:23;94667.69;;;-0.47;100.00
5913;BME280;2982;42.684;23.356;2024-03-23T04:54:49;94643.34;;;-0.32;100.00
5913;BME280;2982;42.684;23.356;2024-03-23T04:57:14;95018.09;;;2.25;100.00
5913;BME280;2982;42.684;23.356;2024-03-23T04:59:40;94879.44;;;1.85;100.00
5913;BME280;2982;42.684;23.356;2024-03-23T05:02:05;94666.47;;;1.14;100.00
5913;BME280;2982;42.684;23.356;2024-03-23T05:04:30;94915.88;;;3.12;100.00
5913;BME280;2982;42.684;23.356;2024-03-23T05:06:56;94858.84;;;3.80;100.00
5913;BME280;2982;42.684;23.356;2024-03-23T05:09:21;95021.19;;;5.58;100.00
5913;BME280;2982;42.684;23.356;2024-03-23T05:11:47;95019.19;;;6.19;100.00
5913;BME280;2982;42.684;23.356;2024-03-23T05:14:15;95015.81;;;6.67;100.00
5913;BME280;2982;42.684;23.356;2024-03-23T05:16:40;94872.97;;;6.17;100.00
5913;BME280;2982;42.684;23.356;2024-03-23T05:19:06;94930.69;;;6.70;100.00
5913;BME280;2982;42.684;23.356;2024-03-23T05:21:31;94989.09;;;7.48;100.00
5913;BME280;2982;42.684;23.356;2024-03-23T05:23:56;94952.06;;;7.47;100.00
5913;BME280;2982;42.684;23.356;2024-03-23T05:26:22;95023.97;;;8.22;100.00
5913;BME280;2982;42.684;23.356;2024-03-23T05:28:48;95039.72;;;8.49;97.92
5913;BME280;2982;42.684;23.356;2024-03-23T05:31:25;94657.22;;;6.51;93.83
5913;BME280;2982;42.684;23.356;2024-03-23T05:33:50;94723.69;;;7.11;89.19
5913;BME280;2982;42.684;23.356;2024-03-23T05:36:17;95015.75;;;9.14;86.55
5913;BME280;2982;42.684;23.356;2024-03-23T05:38:43;94977.81;;;8.75;83.74
5913;BME280;2982;42.684;23.356;2024-03-23T05:41:08;95015.75;;;9.14;86.00
5913;BME280;2982;42.684;23.356;2024-03-23T05:43:33;94827.91;;;8.12;82.61
5913;BME280;2982;42.684;23.356;2024-03-23T05:46:00;94918.44;;;8.99;82.10
5913;BME280;2982;42.684;23.356;2024-03-23T05:48:26;94919.28;;;9.00;78.50
5913;BME280;2982;42.684;23.356;2024-03-23T05:50:52;95022.97;;;9.21;79.62
5913;BME280;2982;42.684;23.356;2024-03-23T05:53:18;95010.94;;;9.08;82.27
5913;BME280;2982;42.684;23.356;2024-03-23T05:55:44;94988.25;;;9.23;83.56
5913;BME280;2982;42.684;23.356;2024-03-23T05:58:10;95009.63;;;9.71;81.28
5913;BME280;2982;42.684;23.356;2024-03-23T06:00:36;94973.00;;;9.77;76.62
5913;BME280;2982;42.684;23.356;2024-03-23T06:03:01;94917.59;;;9.69;73.31
5913;BME280;2982;42.684;23.356;2024-03-23T06:05:26;94690.75;;;8.59;70.84
5913;BME280;2982;42.684;23.356;2024-03-23T06:07:52;94983.47;;;10.71;67.51
5913;BME280;2982;42.684;23.356;2024-03-23T06:10:17;94933.09;;;10.13;67.83
5913;BME280;2982;42.684;23.356;2024-03-23T06:12:43;95009.88;;;10.68;68.29
5913;BME280;2982;42.684;23.356;2024-03-23T06:15:08;94842.72;;;9.45;67.97
5913;BME280;2982;42.684;23.356;2024-03-23T06:17:34;95050.31;;;9.69;71.78
5913;BME280;2982;42.684;23.356;2024-03-23T06:19:59;94590.38;;;6.41;74.75
5913;BME280;2982;42.684;23.356;2024-03-23T06:22:24;94947.91;;;8.07;80.38
5913;BME280;2982;42.684;23.356;2024-03-23T06:24:50;94872.59;;;7.34;85.48
5913;BME280;2982;42.684;23.356;2024-03-23T06:27:15;94894.97;;;7.23;88.86
5913;BME280;2982;42.684;23.356;2024-03-23T06:29:41;94863.38;;;7.13;90.13
5913;BME280;2982;42.684;23.356;2024-03-23T06:32:06;94789.50;;;6.45;91.21
5913;BME280;2982;42.684;23.356;2024-03-23T06:34:32;94738.19;;;6.03;94.17
5913;BME280;2982;42.684;23.356;2024-03-23T06:36:57;94658.72;;;5.49;94.01
5913;BME280;2982;42.684;23.356;2024-03-23T06:39:22;94730.41;;;5.87;94.82
5913;BME280;2982;42.684;23.356;2024-03-23T06:41:54;94818.94;;;6.45;94.02
5913;BME280;2982;42.684;23.356;2024-03-23T06:44:21;95007.41;;;7.95;93.71
5913;BME280;2982;42.684;23.356;2024-03-23T06:46:47;94771.19;;;6.62;93.71
5913;BME280;2982;42.684;23.356;2024-03-23T06:49:12;94985.91;;;8.05;93.52
5913;BME280;2982;42.684;23.356;2024-03-23T06:51:37;94785.56;;;6.60;92.59
5913;BME280;2982;42.684;23.356;2024-03-23T06:54:03;94992.34;;;8.12;94.55
5913;BME280;2982;42.684;23.356;2024-03-23T06:56:29;94897.75;;;7.37;96.71
5913;BME280;2982;42.684;23.356;2024-03-23T06:58:54;94922.06;;;7.80;96.45
5913;BME280;2982;42.684;23.356;2024-03-23T07:01:20;94432.97;;;4.84;95.90
5913;BME280;2982;42.684;23.356;2024-03-23T07:03:45;94793.78;;;7.26;97.50
5913;BME280;2982;42.684;23.356;2024-03-23T07:06:10;94943.75;;;8.24;97.59
5913;BME280;2982;42.684;23.356;2024-03-23T07:08:36;94790.03;;;7.34;99.23
5913;BME280;2982;42.684;23.356;2024-03-23T07:11:01;94984.63;;;8.54;97.37
5913;BME280;2982;42.684;23.356;2024-03-23T07:13:26;94936.16;;;8.24;96.33
5913;BME280;2982;42.684;23.356;2024-03-23T07:15:52;94989.16;;;8.48;96.44
5913;BME280;2982;42.684;23.356;2024-03-23T07:18:18;94879.44;;;7.91;97.30
5913;BME280;2982;42.684;23.356;2024-03-23T07:20:52;94954.81;;;8.42;100.00
5913;BME280;2982;42.684;23.356;2024-03-23T07:23:17;94975.53;;;8.50;99.60
5913;BME280;2982;42.684;23.356;2024-03-23T07:25:43;94980.19;;;8.59;100.00
5913;BME280;2982;42.684;23.356;2024-03-23T07:28:08;94971.78;;;8.77;95.02
5913;BME280;2982;42.684;23.356;2024-03-23T07:30:33;94843.16;;;8.11;93.78
5913;BME280;2982;42.684;23.356;2024-03-23T07:32:59;94884.22;;;8.55;91.11
5913;BME280;2982;42.684;23.356;2024-03-23T07:35:24;94925.53;;;8.74;90.73
5913;BME280;2982;42.684;23.356;2024-03-23T07:37:49;94965.91;;;8.96;91.22
5913;BME280;2982;42.684;23.356;2024-03-23T07:40:15;94964.94;;;8.98;92.43
5913;BME280;2982;42.684;23.356;2024-03-23T07:42:40;94936.84;;;8.67;93.21
5913;BME280;2982;42.684;23.356;2024-03-23T07:45:06;94897.94;;;8.49;93.18
5913;BME280;2982;42.684;23.356;2024-03-23T07:47:31;94958.56;;;9.08;92.83
5913;BME280;2982;42.684;23.356;2024-03-23T07:49:57;94926.31;;;8.93;90.39
5913;BME280;2982;42.684;23.356;2024-03-23T07:52:22;94884.19;;;8.73;90.86
5913;BME280;2982;42.684;23.356;2024-03-23T07:54:47;94884.53;;;9.02;90.50
5913;BME280;2982;42.684;23.356;2024-03-23T07:57:13;94952.94;;;9.55;89.51
5913;BME280;2982;42.684;23.356;2024-03-23T07:59:38;94948.25;;;9.64;88.80
5913;BME280;2982;42.684;23.356;2024-03-23T08:02:04;94952.72;;;9.77;89.72
5913;BME280;2982;42.684;23.356;2024-03-23T08:04:29;94842.34;;;9.01;90.23
5913;BME280;2982;42.684;23.356;2024-03-23T08:06:56;94956.38;;;9.71;87.40
5913;BME280;2982;42.684;23.356;2024-03-23T08:09:22;94622.44;;;7.71;88.54
5913;BME280;2982;42.684;23.356;2024-03-23T08:11:47;94913.84;;;9.76;84.15
5913;BME280;2982;42.684;23.356;2024-03-23T08:14:12;94950.81;;;10.14;87.11
5913;BME280;2982;42.684;23.356;2024-03-23T08:16:38;94956.69;;;10.32;80.68
5913;BME280;2982;42.684;23.356;2024-03-23T08:19:03;94827.69;;;9.42;78.18
5913;BME280;2982;42.684;23.356;2024-03-23T08:21:28;94900.19;;;9.79;78.78
5913;BME280;2982;42.684;23.356;2024-03-23T08:23:54;94946.81;;;10.43;82.96
5913;BME280;2982;42.684;23.356;2024-03-23T08:26:19;94924.94;;;10.56;80.99
5913;BME280;2982;42.684;23.356;2024-03-23T08:28:45;94947.16;;;10.84;75.75
5913;BME280;2982;42.684;23.356;2024-03-23T08:31:12;94944.88;;;10.80;75.89
5913;BME280;2982;42.684;23.356;2024-03-23T08:33:38;94945.94;;;10.76;82.15
5913;BME280;2982;42.684;23.356;2024-03-23T08:36:06;94897.28;;;10.68;77.53
5913;BME280;2982;42.684;23.356;2024-03-23T08:38:32;94940.19;;;11.19;74.78
5913;BME280;2982;42.684;23.356;2024-03-23T08:41:04;94933.34;;;11.35;71.51
5913;BME280;2982;42.684;23.356;2024-03-23T08:43:31;94923.91;;;11.37;72.58
5913;BME280;2982;42.684;23.356;2024-03-23T08:46:23;94928.38;;;11.48;74.28
5913;BME280;2982;42.684;23.356;2024-03-23T08:48:48;94861.16;;;11.38;69.52
5913;BME280;2982;42.684;23.356;2024-03-23T08:51:15;94755.44;;;10.90;66.42
5913;BME280;2982;42.684;23.356;2024-03-23T08:53:41;94895.53;;;11.59;66.61
5913;BME280;2982;42.684;23.356;2024-03-23T08:56:07;94906.97;;;11.82;67.11
5913;BME280;2982;42.684;23.356;2024-03-23T08:58:34;94908.88;;;11.93;67.36
5913;BME280;2982;42.684;23.356;2024-03-23T09:01:10;94790.69;;;11.54;66.51
5913;BME280;2982;42.684;23.356;2024-03-23T09:03:36;94852.69;;;12.10;63.45
5913;BME280;2982;42.684;23.356;2024-03-23T09:06:06;94885.25;;;12.33;64.18
5913;BME280;2982;42.684;23.356;2024-03-23T09:08:31;94725.28;;;11.42;62.25
5913;BME280;2982;42.684;23.356;2024-03-23T09:10:57;94848.13;;;12.29;62.90
5913;BME280;2982;42.684;23.356;2024-03-23T09:13:22;94887.31;;;12.69;63.16
5913;BME280;2982;42.684;23.356;2024-03-23T09:15:51;94885.78;;;12.79;59.98
5913;BME280;2982;42.684;23.356;2024-03-23T09:18:17;94856.66;;;12.83;60.16
5913;BME280;2982;42.684;23.356;2024-03-23T09:20:43;94874.91;;;13.04;58.96
5913;BME280;2982;42.684;23.356;2024-03-23T09:23:09;94830.00;;;12.74;58.52
5913;BME280;2982;42.684;23.356;2024-03-23T09:25:38;94771.38;;;12.35;59.30
5913;BME280;2982;42.684;23.356;2024-03-23T09:28:06;94775.31;;;12.26;61.60
5913;BME280;2982;42.684;23.356;2024-03-23T09:30:33;94852.50;;;12.82;62.14
5913;BME280;2982;42.684;23.356;2024-03-23T09:32:58;94865.78;;;13.14;61.07
5913;BME280;2982;42.684;23.356;2024-03-23T09:35:23;94810.38;;;13.16;59.09
5913;BME280;2982;42.684;23.356;2024-03-23T09:37:49;94642.81;;;12.14;59.16
5913;BME280;2982;42.684;23.356;2024-03-23T09:40:14;94746.88;;;12.86;59.78
5913;BME280;2982;42.684;23.356;2024-03-23T09:42:40;94836.69;;;13.68;59.18
5913;BME280;2982;42.684;23.356;2024-03-23T09:45:06;94840.22;;;13.53;58.94
5913;BME280;2982;42.684;23.356;2024-03-23T09:47:36;94834.44;;;13.51;58.72
5913;BME280;2982;42.684;23.356;2024-03-23T09:50:02;94739.78;;;13.16;58.39
5913;BME280;2982;42.684;23.356;2024-03-23T09:52:28;94822.50;;;13.64;58.76
5913;BME280;2982;42.684;23.356;2024-03-23T09:54:53;94821.56;;;14.03;58.56
5913;BME280;2982;42.684;23.356;2024-03-23T09:57:18;94814.09;;;14.00;58.24
5913;BME280;2982;42.684;23.356;2024-03-23T09:59:44;94782.06;;;13.71;57.68
5913;BME280;2982;42.684;23.356;2024-03-23T10:02:09;94817.97;;;14.06;58.87
5913;BME280;2982;42.684;23.356;2024-03-23T10:07:14;94805.88;;;14.46;56.61
5913;BME280;2982;42.684;23.356;2024-03-23T10:09:40;94761.94;;;14.41;57.44
5913;BME280;2982;42.684;23.356;2024-03-23T10:12:15;94645.78;;;13.61;55.41
5913;BME280;2982;42.684;23.356;2024-03-23T10:14:40;94795.63;;;14.70;54.67
5913;BME280;2982;42.684;23.356;2024-03-23T10:17:16;94784.16;;;14.99;54.05
5913;BME280;2982;42.684;23.356;2024-03-23T10:19:41;94716.78;;;14.76;52.83
5913;BME280;2982;42.684;23.356;2024-03-23T10:22:07;94777.44;;;15.44;52.27
5913;BME280;2982;42.684;23.356;2024-03-23T10:24:32;94768.16;;;15.65;51.61
5913;BME280;2982;42.684;23.356;2024-03-23T10:26:57;94716.53;;;15.14;48.08
5913;BME280;2982;42.684;23.356;2024-03-23T10:29:23;94769.75;;;15.44;46.75
5913;BME280;2982;42.684;23.356;2024-03-23T10:31:48;94697.56;;;15.06;46.28
5913;BME280;2982;42.684;23.356;2024-03-23T10:34:14;94756.63;;;15.49;45.10
5913;BME280;2982;42.684;23.356;2024-03-23T10:36:40;94753.22;;;15.48;46.32
5913;BME280;2982;42.684;23.356;2024-03-23T10:39:07;94748.84;;;15.61;46.19
5913;BME280;2982;42.684;23.356;2024-03-23T10:41:33;94636.97;;;15.17;47.29
5913;BME280;2982;42.684;23.356;2024-03-23T10:44:01;94738.47;;;15.96;44.73
5913;BME280;2982;42.684;23.356;2024-03-23T10:46:27;94660.94;;;15.50;45.06
5913;BME280;2982;42.684;23.356;2024-03-23T10:48:52;94525.69;;;14.56;46.46
5913;BME280;2982;42.684;23.356;2024-03-23T10:51:18;94701.16;;;15.71;45.43
5913;BME280;2982;42.684;23.356;2024-03-23T10:53:45;94663.44;;;15.51;45.44
5913;BME280;2982;42.684;23.356;2024-03-23T10:56:12;94716.13;;;15.87;43.42
5913;BME280;2982;42.684;23.356;2024-03-23T10:58:45;94663.97;;;15.32;42.74
5913;BME280;2982;42.684;23.356;2024-03-23T11:01:14;94553.63;;;14.81;42.53
5913;BME280;2982;42.684;23.356;2024-03-23T11:03:45;94579.53;;;15.21;43.27
5913;BME280;2982;42.684;23.356;2024-03-23T11:06:10;94646.66;;;15.69;43.38
5913;BME280;2982;42.684;23.356;2024-03-23T11:08:40;94530.47;;;14.94;43.62
5913;BME280;2982;42.684;23.356;2024-03-23T11:11:21;94610.34;;;15.75;43.61
5913;BME280;2982;42.684;23.356;2024-03-23T11:13:50;94668.38;;;16.40;44.77
5913;BME280;2982;42.684;23.356;2024-03-23T11:16:27;94622.56;;;16.15;43.17
5913;BME280;2982;42.684;23.356;2024-03-23T11:18:52;94568.09;;;15.81;42.88
5913;BME280;2982;42.684;23.356;2024-03-23T11:21:52;94650.06;;;16.45;42.70
5913;BME280;2982;42.684;23.356;2024-03-23T11:24:20;94636.56;;;16.43;42.96
5913;BME280;2982;42.684;23.356;2024-03-23T11:26:45;94537.63;;;15.99;42.62
5913;BME280;2982;42.684;23.356;2024-03-23T11:29:12;94511.06;;;15.68;42.35
5913;BME280;2982;42.684;23.356;2024-03-23T11:34:25;94594.97;;;16.39;43.47
5913;BME280;2982;42.684;23.356;2024-03-23T11:37:03;94427.03;;;15.41;42.32
5913;BME280;2982;42.684;23.356;2024-03-23T11:39:29;94615.41;;;16.61;42.11
5913;BME280;2982;42.684;23.356;2024-03-23T11:42:00;94512.31;;;15.84;41.57
5913;BME280;2982;42.684;23.356;2024-03-23T11:44:26;94210.03;;;14.19;44.63
5913;BME280;2982;42.684;23.356;2024-03-23T11:46:52;94304.34;;;14.76;40.96
5913;BME280;2982;42.684;23.356;2024-03-23T11:49:22;94435.81;;;15.59;41.14
5913;BME280;2982;42.684;23.356;2024-03-23T11:51:48;94373.47;;;15.28;41.29
5913;BME280;2982;42.684;23.356;2024-03-23T11:54:14;94532.03;;;16.46;40.90
5913;BME280;2982;42.684;23.356;2024-03-23T11:56:40;94524.25;;;16.57;40.56
5913;BME280;2982;42.684;23.356;2024-03-23T11:59:06;94589.06;;;17.01;40.71
5913;BME280;2982;42.684;23.356;2024-03-23T12:01:32;94521.22;;;16.63;40.31
5913;BME280;2982;42.684;23.356;2024-03-23T12:03:57;94578.41;;;17.05;39.82
5913;BME280;2982;42.684;23.356;2024-03-23T12:06:23;94561.53;;;17.12;40.08
5913;BME280;2982;42.684;23.356;2024-03-23T12:08:49;94479.44;;;16.72;40.78
5913;BME280;2982;42.684;23.356;2024-03-23T12:11:17;94457.81;;;16.65;40.71
5913;BME280;2982;42.684;23.356;2024-03-23T12:13:44;94560.41;;;17.26;40.51
5913;BME280;2982;42.684;23.356;2024-03-23T12:18:36;94552.00;;;17.24;40.31
5913;BME280;2982;42.684;23.356;2024-03-23T12:21:01;94431.53;;;16.52;40.07
5913;BME280;2982;42.684;23.356;2024-03-23T12:23:33;94536.41;;;17.46;39.67
5913;BME280;2982;42.684;23.356;2024-03-23T12:25:59;94535.00;;;17.63;39.90
5913;BME280;2982;42.684;23.356;2024-03-23T12:28:24;94412.88;;;17.11;39.37
5913;BME280;2982;42.684;23.356;2024-03-23T12:30:50;94492.13;;;17.73;37.90
5913;BME280;2982;42.684;23.356;2024-03-23T12:33:15;94515.81;;;17.96;37.25
5913;BME280;2982;42.684;23.356;2024-03-23T12:35:40;94426.69;;;17.48;36.47
5913;BME280;2982;42.684;23.356;2024-03-23T12:38:06;94480.91;;;17.74;37.20
5913;BME280;2982;42.684;23.356;2024-03-23T12:40:31;94520.00;;;18.16;36.80
5913;BME280;2982;42.684;23.356;2024-03-23T12:42:56;94360.47;;;17.33;37.31
5913;BME280;2982;42.684;23.356;2024-03-23T12:45:22;94425.91;;;17.67;36.14
5913;BME280;2982;42.684;23.356;2024-03-23T12:47:48;94387.50;;;17.66;36.35
5913;BME280;2982;42.684;23.356;2024-03-23T12:50:13;94275.34;;;16.99;36.16
5913;BME280;2982;42.684;23.356;2024-03-23T12:52:38;94439.50;;;18.06;36.03
5913;BME280;2982;42.684;23.356;2024-03-23T12:55:04;94429.94;;;17.89;36.59
5913;BME280;2982;42.684;23.356;2024-03-23T12:57:30;94478.28;;;18.41;36.32
5913;BME280;2982;42.684;23.356;2024-03-23T12:59:55;94381.25;;;17.87;34.87
5913;BME280;2982;42.684;23.356;2024-03-23T13:02:21;94406.38;;;18.03;35.02
5913;BME280;2982;42.684;23.356;2024-03-23T13:04:49;94382.03;;;18.07;34.47
5913;BME280;2982;42.684;23.356;2024-03-23T13:07:16;94473.09;;;18.70;34.66
5913;BME280;2982;42.684;23.356;2024-03-23T13:09:42;94337.75;;;17.76;33.69
5913;BME280;2982;42.684;23.356;2024-03-23T13:12:09;94313.81;;;17.76;33.68
5913;BME280;2982;42.684;23.356;2024-03-23T13:14:34;94464.84;;;18.67;32.25
5913;BME280;2982;42.684;23.356;2024-03-23T13:17:00;94417.09;;;18.45;30.89
5913;BME280;2982;42.684;23.356;2024-03-23T13:19:26;94448.44;;;18.68;31.96
5913;BME280;2982;42.684;23.356;2024-03-23T13:21:51;94233.75;;;17.34;34.45
5913;BME280;2982;42.684;23.356;2024-03-23T13:24:17;94258.88;;;17.30;33.78
5913;BME280;2982;42.684;23.356;2024-03-23T13:26:42;94413.94;;;18.14;34.60
5913;BME280;2982;42.684;23.356;2024-03-23T13:29:07;94441.38;;;18.33;34.56
5913;BME280;2982;42.684;23.356;2024-03-23T13:31:33;94446.75;;;18.39;34.99
5913;BME280;2982;42.684;23.356;2024-03-23T13:33:58;94405.56;;;18.12;34.64
5913;BME280;2982;42.684;23.356;2024-03-23T13:36:23;94419.34;;;18.11;33.64
5913;BME280;2982;42.684;23.356;2024-03-23T13:38:50;94382.06;;;17.78;33.58
5913;BME280;2982;42.684;23.356;2024-03-23T13:41:15;94436.16;;;18.06;32.28
5913;BME280;2982;42.684;23.356;2024-03-23T13:43:41;94377.53;;;17.63;30.10
5913;BME280;2982;42.684;23.356;2024-03-23T13:46:06;94391.28;;;17.81;29.52
5913;BME280;2982;42.684;23.356;2024-03-23T13:48:31;94348.84;;;17.67;29.72
5913;BME280;2982;42.684;23.356;2024-03-23T13:51:03;94415.41;;;18.26;29.31
5913;BME280;2982;42.684;23.356;2024-03-23T13:53:29;94408.81;;;18.14;29.44
5913;BME280;2982;42.684;23.356;2024-03-23T13:55:55;94408.00;;;18.14;28.85
5913;BME280;2982;42.684;23.356;2024-03-23T13:58:21;94314.63;;;17.57;28.90
5913;BME280;2982;42.684;23.356;2024-03-23T14:00:46;94419.88;;;18.24;29.55
5913;BME280;2982;42.684;23.356;2024-03-23T14:03:13;94234.31;;;17.08;29.19
5913;BME280;2982;42.684;23.356;2024-03-23T14:05:39;94363.13;;;17.89;28.90
5913;BME280;2982;42.684;23.356;2024-03-23T14:08:08;94405.00;;;18.18;29.12